This is the latest recevied weather packets stored in our database for station/object SQ6ELQ-11. If no packets are shown the sender has not sent any weather packets the latest 10 day(s).
| Time | Temp. | Humidity | Pressure | Rain* | Wind** | Luminosity | Snow |
|---|---|---|---|---|---|---|---|
| 1777836293 | 17.78° C | 27% | 1015.4 hPa | 0 mm | - | - | - |
| 1777835221 | 17.22° C | 27% | 1015.2 hPa | 0 mm | - | - | - |
| 1777834076 | 17.78° C | 25% | 1015.1 hPa | 0 mm | - | - | - |
| 1777833076 | 18.33° C | 24% | 1014.9 hPa | 0 mm | - | - | - |
| 1777831911 | 19.44° C | 22% | 1014.9 hPa | 0 mm | - | - | - |
| 1777830833 | 20.56° C | 19% | 1014.9 hPa | 0 mm | - | - | - |
| 1777829746 | 21.67° C | 18% | 1014.7 hPa | 0 mm | - | - | - |
| 1777828686 | 21.67° C | 17% | 1014.7 hPa | 0 mm | - | - | - |
| 1777827680 | 21.11° C | 19% | 1014.8 hPa | 0 mm | - | - | - |
| 1777826567 | 21.67° C | 17% | 1014.7 hPa | 0 mm | - | - | - |
| 1777825401 | 23.33° C | 16% | 1014.9 hPa | 0 mm | - | - | - |
| 1777824362 | 23.33° C | 17% | 1014.6 hPa | 0 mm | - | - | - |
| 1777823231 | 23.89° C | 16% | 1014.8 hPa | 0 mm | - | - | - |
| 1777822139 | 23.89° C | 16% | 1014.9 hPa | 0 mm | - | - | - |
| 1777821024 | 23.89° C | 16% | 1014.9 hPa | 0 mm | - | - | - |
| 1777820016 | 24.44° C | 15% | 1015.2 hPa | 0 mm | - | - | - |
| 1777818931 | 24.44° C | 15% | 1015.3 hPa | 0 mm | - | - | - |
| 1777817851 | 24.44° C | 16% | 1015.4 hPa | 0 mm | - | - | - |
| 1777816836 | 24.44° C | 15% | 1015.4 hPa | 0 mm | - | - | - |
| 1777815801 | 23.89° C | 16% | 1015.6 hPa | 0 mm | - | - | - |
| 1777814793 | 24.44° C | 18% | 1015.8 hPa | 0 mm | - | - | - |
| 1777813691 | 24.44° C | 21% | 1016 hPa | 0 mm | - | - | - |
| 1777812646 | 23.89° C | 22% | 1016.2 hPa | 0 mm | - | - | - |
| 1777811562 | 23.33° C | 22% | 1016.4 hPa | 0 mm | - | - | - |
| 1777810378 | 22.78° C | 23% | 1016.6 hPa | 0 mm | - | - | - |
* Rain latest hour (hover to see other rain measurements)
** Current wind speed in m/s (hover to see current wind gust speed)